Vladimir Milenkovic

Jefe de ojeadores - Vojvodina
6 Ago 2028
Domingo
Continuar

Personalidad

Adaptabilidad (6) Ambición (6) Controversia (9) Lealtad (18) Presión (17) Profesionalismo (9) Deportividad (5) Temperamento (19)

Perfil

Estilo de dirección Democrático
Licencia Nacional B
Determinación 7
Gestión de personas 12
Motivación 4
Disciplina 5
Satisfacción laboral
100%
Fatiga
0%
Cargo Jefe de ojeadores
Salario 45.0K p/s
Contrato 14.03.2029

Rendimiento

Comportamiento Bueno
Efectividad del entrenamiento
36%
Desarrollo de jugadores
25%
Prevención de lesiones
35%
Implementación táctica
30%

Eventos recientes

Evaluó a un jugador ahora
Asistió a una reunión de captación ahora
Asistió a una reunión de captación ahora
Recomendó un objetivo de fichaje ahora
Recomendó un objetivo de fichaje ahora
Recomendó un objetivo de fichaje 7d atrás
Recomendó un objetivo de fichaje 7d atrás
Recomendó un objetivo de fichaje 7d atrás

Actualmente siguiendo

223
Jugador Club Estado Habilidad Confianza Observado Última observación Último voto
Jake Evans Crewe Alexandra Activo 115 / 127 40% 4 31.07.2028 -
Lennart Karl TSG Hoffenheim Activo 142 / 144 40% 1 31.07.2028 -
Owen Foye Swindon Town Activo 80 / 102 40% 1 18.07.2028 -
Riquelme Thompson-Jones Accrington Stanley Activo 108 / 115 40% 1 18.07.2028 -
Denis Grigorjev Arsenal Tula Activo 96 / 92 40% 1 03.07.2028 -
Itumeleng Jali Spezia Activo 119 / 115 40% 1 03.07.2028 -
Reggie Walsh Chelsea Activo 124 / 136 40% 1 26.06.2028 -
Celías Ingenthron Platense Activo 111 / 115 40% 1 26.06.2028 -
Andrija Bulatović Chamois Niortais Activo 124 / 130 40% 4 19.06.2028 -
Jenson Jones Walsall Activo 107 / 109 40% 1 12.06.2028 -
David Buchta Radnicki 1923 Perdido 119 / 119 58% 1 06.06.2028 -
Giovanni Leoni Lincoln City Activo 136 / 154 40% 1 31.05.2028 -
Adnan Nainggolan KV Oostende Activo 101 / 120 40% 1 31.05.2028 -
Darlvin Yeboah Bechem United Activo 88 / 100 40% 6 30.05.2028 -
Joshua Ajala Walsall Activo 110 / 114 40% 2 29.05.2028 -
Dmitry Nikitin Baltika Activo 86 / 97 40% 1 29.05.2028 -
Rahul Sharma Pontedera Activo 90 / 97 40% 1 26.05.2028 -
Luka Andrade Montevideo City Torque Activo 99 / 114 40% 2 25.05.2028 -
Igor Tyjon Barrow AFC Activo 116 / 131 40% 2 25.05.2028 -
Francisco Souza Silva Feirense Activo 113 / 118 40% 4 24.05.2028 -
Ivan Denysov Rukh Activo 84 / 101 40% 2 24.05.2028 -
Nathan Mbala FC Metz Activo 99 / 106 40% 5 23.05.2028 -
Nazif Inoussa Benfica Activo 76 / 87 40% 3 22.05.2028 -
João Tavares Porto Activo 82 / 94 40% 2 20.05.2028 -
Rémi Himbert AC Ajaccio Activo 119 / 122 40% 1 20.05.2028 -
Cristian Carrara Guidonia Montecelio Activo 99 / 104 40% 4 19.05.2028 -
Ousseynou Seck Randers Activo 108 / 140 40% 1 18.05.2028 -
Luca Williams-Barnett Walsall Activo 121 / 135 40% 6 16.05.2028 -
Baba N'Diaye Chaika Activo 88 / 90 40% 3 13.05.2028 -
Otto Stange Borussia Mönchengladbach Activo 136 / 128 40% 2 12.05.2028 -
Andrea Luongo Trento Activo 105 / 105 40% 1 10.05.2028 -
Artur Kozyrev Volna Activo 98 / 89 40% 1 09.05.2028 -
Fletcher Boyd Accrington Stanley Activo 108 / 108 40% 3 08.05.2028 -
Mattia Esposito Virtus Verona Activo 86 / 87 40% 1 08.05.2028 -
Sam Amo-Ameyaw RC Strasbourg Activo 123 / 138 40% 1 07.05.2028 -
Ryan Oné Sheffield United Activo 119 / 128 40% 2 02.05.2028 -
Kylian Kouakou Valenciennes Activo 91 / 103 40% 2 24.04.2028 -
Mahmoud Salah El Dakhleya Activo 70 / 105 40% 1 20.04.2028 -
Louis Zecevic-John Colchester United Activo 93 / 102 40% 1 20.04.2028 -
Kaye Furo Reading Activo 115 / 120 40% 1 19.04.2028 -
Jamal Iddrissou Pergolettese Activo 113 / 112 40% 1 13.04.2028 -
Lovre Kulušić Dinamo Zagreb Activo 108 / 118 40% 1 10.04.2028 -
Luke Baartman Ajax Cape Town Activo 120 / 122 40% 7 09.04.2028 -
Luca Meirelles Kudrivka Activo 115 / 124 40% 4 09.04.2028 -
Siyabonga Mabena Bidvest Wits Activo 128 / 144 40% 6 06.04.2028 -
Ryan Kavuma-McQueen Accrington Stanley Activo 126 / 131 40% 3 06.04.2028 -
Michael Noumon Heart of Lions Activo 69 / 88 40% 4 05.04.2028 -
Ahmed Khaled Paralimni Activo 100 / 120 40% 1 04.04.2028 -
Nana Nuhu WAFA Activo 84 / 99 40% 4 19.03.2028 -
Kerim Alajbegović Modena Activo 135 / 138 40% 3 16.03.2028 -
Mads Abrahamsen Zenit Penza Activo 98 / 84 40% 2 16.03.2028 -
Gomolemo Kekana Maritzburg United Activo 106 / 110 40% 1 15.03.2028 -
Lander Astiazarán Real Sociedad Activo 110 / 109 40% 5 13.03.2028 -
Víctor Guzmán Sporting CP Activo 101 / 118 40% 5 12.03.2028 -
Josh Nichols Oldham Athletic Activo 112 / 125 40% 4 12.03.2028 -
Ben Broggio Mansfield Town Activo 110 / 122 40% 2 11.03.2028 -
Henrique Carmo Sochi Activo 134 / 133 40% 1 11.03.2028 -
Oscar Schwartau Norwich City Activo 136 / 128 40% 2 09.03.2028 -
Luighi Palmeiras Activo 115 / 106 40% 2 09.03.2028 -
Ryan McAidoo Oldham Athletic Activo 127 / 136 40% 2 08.03.2028 -
Luke Brooke-Smith Chesterfield Activo 106 / 116 40% 1 08.03.2028 -
Isaque Obolon Activo 130 / 125 40% 2 06.03.2028 -
Ruben Ramos LA Galaxy Activo 106 / 97 40% 1 22.02.2028 -
Leo Pecover Swindon Town Activo 101 / 112 40% 1 19.02.2028 -
Amin Nabizada Exeter City Activo 104 / 111 40% 2 17.02.2028 -
Gabe Forsyth Colchester United Activo 102 / 123 40% 1 12.02.2028 -
Xavier Jodamus Jomo Cosmos Activo 85 / 82 40% 1 08.02.2028 -
Rafael Lobato Rio Ave Activo 117 / 119 40% 1 07.02.2028 -
Alphadjo Cissé Lecce Activo 129 / 134 40% 1 05.02.2028 -
Romelle Donovan Brentford Activo 131 / 128 40% 2 04.02.2028 -
Eduardo Fernandes Benfica Activo 123 / 115 40% 1 03.02.2028 -
Nestory Irankunda Watford Activo 119 / 133 40% 1 03.02.2028 -
Matias Siltanen Malmo FF Activo 128 / 124 40% 2 31.01.2028 -
Rio Ngumoha Plymouth Argyle Activo 145 / 140 40% 1 31.01.2028 -
Nicolás Barros Schelotto Gimnasia La Plata Activo 115 / 127 40% 2 30.01.2028 -
Bautista Carboni Defensores Unidos Activo 102 / 119 40% 4 29.01.2028 -
Zane Albarus Shrewsbury Town Activo 104 / 110 40% 3 27.01.2028 -
Tyron Kariuki KCB Activo 76 / 87 40% 3 27.01.2028 -
Matija Marsenić Cukaricki Activo 104 / 93 58% 1 24.01.2028 Aprobar
Dânio Djassi Portimonense Activo 111 / 122 40% 1 24.01.2028 -
Alex Verón Vélez Activo 116 / 133 40% 1 24.01.2028 -
Joel Medina Independiente Activo 116 / 132 40% 1 05.12.2027 -
Chimobi Igwilo Rangers International Activo 93 / 109 40% 2 04.12.2027 -
Juan Camilo Córdoba Deportivo Pereira Activo 77 / 94 40% 1 03.12.2027 -
Matías Arias Vélez Activo 122 / 110 40% 3 02.12.2027 -
Victor Hernandez Santa Fe Activo 122 / 116 40% 1 02.12.2027 -
Tiago Pucciarelli IF Elfsborg Activo 89 / 104 40% 1 30.11.2027 -
Alex Amaefula Kun Khalifat Activo 96 / 89 40% 2 27.11.2027 -
Dániel Pintér Inter Miami CF Activo 98 / 107 40% 1 27.11.2027 -
Nicolás Ferreira Artigas Activo 74 / 98 40% 1 24.11.2027 -
Pedro Baltika Activo 144 / 152 40% 1 24.11.2027 -
Jayden Danns Bradford City Activo 127 / 146 40% 1 23.11.2027 -
Christ Wawa Gefle Activo 115 / 102 40% 2 22.11.2027 -
Julián Bragado Morón Activo 92 / 79 40% 1 22.11.2027 -
Albert Aleksanjan IFK Norrkoping Activo 101 / 113 40% 1 21.11.2027 -
Kaique Kenji Fortaleza Activo 126 / 122 40% 1 19.11.2027 -
Joseph Abah Remo Stars Activo 102 / 110 40% 1 18.11.2027 -
Lucas Nicol Mjondalen Activo 74 / 90 40% 1 16.11.2027 -
Giovanni Baroni Talleres Activo 107 / 114 40% 2 14.11.2027 -
Hassan Beja AFC Leopards Activo 74 / 94 40% 1 13.11.2027 -
Francisco Triver River Plate Activo 95 / 92 40% 1 12.11.2027 -
Jeremías Merlo Gimnasia La Plata Activo 121 / 115 40% 1 09.11.2027 -
Joel Ezra Enyimba Activo 80 / 92 40% 3 04.11.2027 -
Matías Canedo Rampla Juniors Activo 95 / 87 40% 1 01.11.2027 -
Lucas Camejo River Plate Activo 80 / 91 40% 2 04.10.2027 -
Nahuel Leivas Montevideo City Torque Activo 110 / 120 40% 1 04.10.2027 -
Serge Daura PWD Bamenda Activo 97 / 118 40% 3 18.08.2027 -
Peter Amidu Acquah Asante Kotoko Activo 100 / 86 40% 2 18.08.2027 -
Temur Odilov Mara Sugar Activo 67 / 87 40% 1 17.08.2027 -
Daniel Awuni Aduana Stars Activo 88 / 105 40% 3 11.08.2027 -
Calum Agius Crewe Alexandra Activo 108 / 94 40% 3 09.08.2027 -
Tiago Freitas Benfica Activo 117 / 116 40% 1 06.08.2027 -
Gabriele Bertolini Vicenza Activo 98 / 103 40% 1 06.08.2027 -
Othmane Maamma Watford Activo 122 / 141 40% 2 05.08.2027 -
Cristiano La Sorsa Trapani Activo 95 / 88 40% 1 03.08.2027 -
Stevan Manuel Benfica Activo 107 / 118 40% 1 03.08.2027 -
André Miranda Porto Activo 108 / 102 40% 2 13.07.2027 -
Mustapha Umar Kano Pillars Activo 83 / 88 40% 1 13.07.2027 -
Mattia Della Rocca Pontedera Activo 89 / 92 40% 1 06.07.2027 -
Christ Kouadio Radnik Surdulica Activo 104 / 93 58% 1 21.06.2027 -
Gonçalo Oliveira Benfica Activo 113 / 114 40% 1 06.06.2027 -
Riyad Idrissi Cagliari Activo 124 / 126 40% 1 06.06.2027 -
Ramadan Ashour Sporting Cristal Activo 120 / 120 67% 1 01.06.2027 Aprobar
Tamas Kleinheisler St. Pauli Activo 114 / 121 66% 1 01.06.2027 Aprobar
Rhys Walters Port Vale Activo 97 / 110 40% 1 01.06.2027 -
Máximo Seggio Crawley Town Activo 84 / 89 40% 2 30.05.2027 -
Elijas Gunnergård Ortan Ahrobiznes Activo 75 / 86 40% 1 29.05.2027 -
Mikel Gogorza Brondby Activo 131 / 139 40% 2 27.05.2027 -
Rafael Moreno Atletico Venezuela Activo 110 / 101 40% 3 27.05.2027 -
Miloš Jovičić Zabbar St. Patrick Activo 87 / 101 40% 4 26.05.2027 -
Jan Bürger Northampton Town Activo 111 / 112 40% 1 25.05.2027 -
Dilan Neves Benfica Activo 74 / 93 40% 3 23.05.2027 -
Mateus Mané Burnley Activo 135 / 136 40% 6 21.05.2027 -
Luka Đorđević Cukaricki Activo 99 / 97 40% 3 19.05.2027 -
Maren Kefas Plateau United Activo 84 / 86 40% 1 17.05.2027 -
Borna Knezović Casarano Activo 103 / 113 40% 2 11.05.2027 -
Stanley Amon Bayelsa United Activo 101 / 98 40% 4 10.05.2027 -
Alagie Wally Veres Activo 83 / 103 40% 2 09.05.2027 -
Teboho Zwane Ajax Cape Town Activo 79 / 105 40% 4 07.05.2027 -
Leo Castledine Middlesbrough Activo 133 / 131 40% 6 06.05.2027 Observar
Njabulo Hlongwane AS Korofina Activo 72 / 66 40% 1 06.05.2027 -
Ben Ahmed Kohili Paradou Activo 113 / 111 40% 1 03.05.2027 -
Godbless Ayeke AS Bakaridjan Activo 92 / 88 40% 2 01.05.2027 -
Fletcher Holman Swindon Town Activo 82 / 88 40% 3 01.05.2027 -
Sergey Gaiduk Salyut Activo 85 / 70 40% 3 30.04.2027 -
Dani Ángel Sampdoria Activo 96 / 91 40% 4 27.04.2027 -
Alen Vukaj Alcione Milano Activo 84 / 102 40% 1 27.04.2027 -
Abubakar Garba Nasarawa United Activo 75 / 94 40% 2 24.04.2027 -
Lwanda Mbanjwa Platinum Stars Activo 101 / 86 40% 4 23.04.2027 -
Jonás Luna Wanderers Activo 116 / 125 40% 1 20.04.2027 -
David Fernández O'Higgins Activo 101 / 121 40% 1 19.04.2027 -
Mike Themsen Randers Activo 107 / 136 40% 1 19.04.2027 -
Vanja Dragojević Partizan Activo 122 / 108 40% 2 18.04.2027 -
Rocco Vata Watford Activo 121 / 129 40% 1 08.04.2027 -
Chineme Chinonso Ikorodu City Activo 94 / 82 40% 1 29.03.2027 -
Eduardo Lozano Botafogo Activo 146 / 144 40% 1 26.03.2027 -
Gosiame Ngobeni New Edubiase United Activo 61 / 64 40% 1 24.03.2027 -
Will Lankshear Middlesbrough Activo 126 / 116 40% 1 20.03.2027 -
Joseph George Aigle Royal de Moungo Activo 100 / 104 40% 1 17.03.2027 -
Lorenzo De Leo Renate Activo 92 / 94 40% 1 15.03.2027 -
Braiden Graham Everton Activo 93 / 97 40% 1 13.03.2027 -
Sam Greenwood Bristol City Activo 130 / 130 40% 1 18.01.2027 -
Sam Dalby Bolton Wanderers Activo 120 / 109 40% 1 18.01.2027 -
Ar'jany Martha Rotherham United Activo 100 / 114 40% 1 29.12.2026 -
Bongani Zungu Ajax Cape Town Activo 130 / 136 40% 1 29.12.2026 -
Bienvenue Kanakimana Zbrojovka Brno Activo 118 / 121 40% 2 28.12.2026 -
Tomáš Rigo Stoke City Activo 138 / 132 40% 1 27.12.2026 -
Kristoffer Lund Birmingham Activo 129 / 121 40% 1 27.12.2026 -
Lukáš Červ Viktoria Plzen Activo 122 / 133 40% 1 26.12.2026 -
Cian Ashford Cardiff City Activo 112 / 123 40% 1 25.12.2026 -
Fiete Arp OB Activo 119 / 129 40% 1 25.12.2026 -
Juan Pablo Gallego Fehervar Activo 112 / 108 40% 1 23.12.2026 -
Rabiu Abdullahi Bylis Activo 86 / 103 40% 1 22.12.2026 -
Adam Randell Bristol City Activo 125 / 130 40% 1 22.12.2026 -
Thomas Carrique Andorra Activo 121 / 117 40% 2 21.12.2026 -
Bazoumana Touré Newcastle United Activo 136 / 142 40% 1 21.12.2026 -
Milan Vukotić Partizan Activo 132 / 113 40% 3 18.12.2026 Observar
Dominik Pleštil Bohemians 1905 Activo 104 / 109 40% 1 16.12.2026 -
Tyrese Campbell Sheffield United Activo 135 / 133 40% 1 15.12.2026 -
Max Johnston Derby County Activo 133 / 121 40% 1 14.12.2026 -
Oliver Skipp Leicester City Activo 137 / 133 40% 1 11.12.2026 -
Ali Ahmed Norwich City Activo 122 / 124 40% 1 11.12.2026 -
Kirill Cheburakov Rostov Activo 69 / 77 40% 1 10.12.2026 -
Alfie Doughty Millwall Activo 129 / 119 40% 1 08.12.2026 -
Joel Bagan Cardiff City Activo 113 / 106 40% 1 07.12.2026 -
Scott Twine Bristol City Activo 129 / 125 40% 1 06.12.2026 -
Andrey Domotsev Mashuk Activo 81 / 91 40% 1 06.12.2026 -
Jesus Ferreira Seattle Sounders Activo 137 / 126 40% 1 04.12.2026 -
Juan Bezerra Zamalek Activo 109 / 108 40% 3 03.12.2026 -
Jalal Abdullai Molde Activo 99 / 109 40% 2 03.12.2026 -
Matías Contrera Hrvatski Dragovoljac Activo 102 / 100 40% 1 03.12.2026 -
Manu Morlanes Mallorca Activo 134 / 145 40% 1 01.12.2026 -
Cheick Oumar Souaré Viktoria Plzen Activo 123 / 115 40% 1 01.12.2026 -
Arsen Adamov Akhmat Grozny Activo 125 / 111 40% 1 30.11.2026 -
Marcelo Allende Mamelodi Sundowns Activo 117 / 138 40% 1 30.11.2026 -
Oswin Appollis Orlando Pirates Activo 121 / 121 40% 1 29.11.2026 -
Reda Khadra Qarabag Activo 136 / 120 40% 2 28.11.2026 -
Maximo Ingravidi Colón Activo 111 / 109 40% 1 27.11.2026 -
Thabang Matuludi Polokwane City Activo 105 / 126 40% 1 27.11.2026 -
Bojica Nikčević Radnicki 1923 Activo 111 / 101 40% 1 27.11.2026 -
Filip Kubala Banik Ostrava Activo 128 / 112 40% 1 26.11.2026 -
Gizo Mamageishvili Sturm Graz Activo 124 / 118 40% 1 26.11.2026 -
David Kalokoh Ajax Activo 119 / 114 40% 1 24.11.2026 -
Marco Pašalić Orlando City Activo 125 / 126 40% 1 24.11.2026 -
Themba Dala Black Aces Activo 126 / 101 40% 1 21.11.2026 -
Sandi Balkovec NK Domzale Activo 80 / 84 40% 1 20.11.2026 -
Luka Stojković Dinamo Zagreb Activo 127 / 126 40% 1 16.11.2026 -
Daniel Kyerewaa Reading Activo 110 / 119 40% 1 13.11.2026 -
Tio Cipot NK Maribor Activo 123 / 120 40% 1 11.11.2026 -
Erik Botheim Viking Activo 139 / 112 40% 1 06.11.2026 -
Jens Petter Hauge Bodo/Glimt Activo 125 / 128 40% 1 04.11.2026 -
Tadeo Allende Inter Miami CF Activo 134 / 112 40% 1 03.11.2026 -
Frederik Carstensen Sarpsborg 08 Activo 121 / 121 40% 1 02.11.2026 -
Simphiwe Selepe Orlando Pirates Activo 102 / 124 40% 1 22.10.2026 -
Nikola Krstić IMT Perdido 100 / 110 40% 1 21.10.2026 Más información
Sanel Šaljić Austria Wien Activo 117 / 114 40% 1 18.10.2026 -
Dean Jali Platinum Stars Activo 110 / 112 40% 1 18.10.2026 -
Shola Ogundana Dynamo Kyiv Activo 125 / 113 40% 1 12.10.2026 -
David Ozoh Derby County Activo 128 / 125 40% 1 09.10.2026 -
Agustín Medina Lanús Activo 116 / 123 40% 2 07.10.2026 -
Pavel Pelevin Spartak Moscow Activo 66 / 90 40% 1 07.10.2026 -
Yahaya Ibrahim Plateau United Activo 89 / 96 40% 1 07.09.2026 -
Marko Ćurić Zeleznicar Pancevo Activo 97 / 87 55% 1 24.08.2026 -